Wetterdaten: aktuell Freitag, 04.09.2026 03:05
Datum Zeit Arbeit-Z. Temp. A. Bod.+5cm Temp. A. min Temp. A. max Bl.Temp +1m BTemp -5cm BTemp -10cm BTemp -20cm BTemp -50cm Feuchte I. Feuchte A. BlattFeu +1m BFeucht -5cm BFeucht-10cm BFeucht-20cm BFeucht-50cm Luftdruck Regen Wind Richtung Richtung Sonnenschein ET UV Solar Taupunkt Windchill Windböen Empfang
04.09.2026 03:05 25,3 °C 19,5 °C 17,8 °C 19,4 °C 19,7 °C 20,6 °C 20,6 °C 21,1 °C 21,1 °C 20,6 °C 49 % 77 % 0 lf 200 cb 200 cb 200 cb 128 cb 1017,3 hPa 0,0 l/m² 0,7 km/h (0 Bft) SW 218 ° 0 min 0,025 mm 0,0 UV-I 0 W/m² 15,4 °C 19,5 °C 3,2 km/h (1 Bft) 92,37 %
04.09.2026 02:05 25,4 °C 19,9 °C 18,3 °C 19,9 °C 20,0 °C 21,1 °C 21,1 °C 21,7 °C 21,1 °C 20,6 °C 49 % 78 % 0 lf 200 cb 200 cb 200 cb 128 cb 1017,7 hPa 0,0 l/m² 0,0 km/h (0 Bft) SO 142 ° 0 min 0,026 mm 0,0 UV-I 0 W/m² 15,9 °C 19,9 °C 0,0 km/h (0 Bft) 95,73 %
04.09.2026 01:05 25,4 °C 21,6 °C 19,4 °C 21,6 °C 21,8 °C 21,1 °C 21,1 °C 21,7 °C 20,6 °C 20,6 °C 49 % 71 % 0 lf 200 cb 200 cb 200 cb 128 cb 1017,9 hPa 0,0 l/m² 0,0 km/h (0 Bft) SO 134 ° 0 min 0,025 mm 0,0 UV-I 0 W/m² 16,1 °C 21,6 °C 0,0 km/h (0 Bft) 94,87 %
04.09.2026 00:05 25,4 °C 22,9 °C 21,1 °C 22,9 °C 23,1 °C 21,1 °C 21,1 °C 21,7 °C 20,6 °C 20,6 °C 49 % 66 % 0 lf 200 cb 200 cb 200 cb 128 cb 1018,4 hPa 0,0 l/m² 0,1 km/h (0 Bft) W-NW 299 ° 0 min 0,025 mm 0,0 UV-I 0 W/m² 16,2 °C 22,9 °C 1,6 km/h (1 Bft) 96,49 %
03.09.2026 23:05 25,4 °C 23,1 °C 21,1 °C 23,0 °C 23,1 °C 21,7 °C 21,7 °C 21,7 °C 20,6 °C 20,6 °C 49 % 66 % 0 lf 200 cb 200 cb 200 cb 128 cb 1018,1 hPa 0,0 l/m² 0,2 km/h (0 Bft) S 182 ° 0 min 0,025 mm 0,0 UV-I 0 W/m² 16,4 °C 23,1 °C 1,6 km/h (1 Bft) 99,18 %
03.09.2026 22:05 25,4 °C 23,4 °C 21,1 °C 23,3 °C 23,4 °C 21,7 °C 21,7 °C 21,7 °C 20,6 °C 20,6 °C 48 % 64 % 0 lf 200 cb 200 cb 200 cb 127 cb 1018,2 hPa 0,0 l/m² 0,3 km/h (0 Bft) S 182 ° 0 min 0,051 mm 0,0 UV-I 0 W/m² 16,2 °C 23,4 °C 1,6 km/h (1 Bft) 89,17 %
03.09.2026 21:05 25,3 °C 23,8 °C 21,7 °C 23,8 °C 23,9 °C 21,7 °C 21,7 °C 21,7 °C 20,6 °C 20,0 °C 48 % 65 % 0 lf 200 cb 200 cb 200 cb 126 cb 1018,1 hPa 0,0 l/m² 0,0 km/h (0 Bft) SO 124 ° 0 min 0,025 mm 0,0 UV-I 0 W/m² 16,8 °C 23,8 °C 1,6 km/h (1 Bft) 99,15 %
03.09.2026 20:05 25,4 °C 24,8 °C 22,8 °C 24,8 °C 25,0 °C 22,2 °C 22,2 °C 21,7 °C 20,6 °C 20,0 °C 46 % 59 % 0 lf 200 cb 200 cb 200 cb 126 cb 1017,5 hPa 0,0 l/m² 0,0 km/h (0 Bft) SW 236 ° 0 min 0,025 mm 0,0 UV-I 0 W/m² 16,2 °C 24,8 °C 0,0 km/h (0 Bft) 93,50 %
03.09.2026 19:05 25,4 °C 26,9 °C 23,9 °C 26,8 °C 26,9 °C 22,2 °C 22,2 °C 21,7 °C 20,6 °C 20,0 °C 45 % 48 % 0 lf 200 cb 200 cb 200 cb 126 cb 1017,1 hPa 0,0 l/m² 0,4 km/h (0 Bft) W 261 ° 0 min 0,076 mm 0,0 UV-I 54 W/m² 14,9 °C 26,9 °C 1,6 km/h (1 Bft) 92,86 %
03.09.2026 18:05 25,4 °C 27,4 °C 25,6 °C 27,4 °C 27,6 °C 22,2 °C 22,2 °C 21,1 °C 20,6 °C 20,0 °C 44 % 46 % 0 lf 200 cb 200 cb 200 cb 125 cb 1017,0 hPa 0,0 l/m² 0,6 km/h (0 Bft) S 189 ° 20 min 0,127 mm 0,5 UV-I 116 W/m² 14,7 °C 27,4 °C 3,2 km/h (1 Bft) 96,64 %
03.09.2026 17:05 25,3 °C 27,7 °C 26,7 °C 27,6 °C 27,7 °C 22,2 °C 22,2 °C 21,1 °C 20,0 °C 20,0 °C 44 % 46 % 0 lf 200 cb 200 cb 200 cb 125 cb 1017,7 hPa 0,0 l/m² 2,9 km/h (1 Bft) N 360 ° 60 min 0,228 mm 1,0 UV-I 190 W/m² 15,0 °C 27,7 °C 8,0 km/h (2 Bft) 96,67 %
03.09.2026 16:05 25,3 °C 27,4 °C 26,1 °C 27,3 °C 27,4 °C 22,2 °C 22,2 °C 21,1 °C 20,0 °C 20,0 °C 43 % 44 % 0 lf 200 cb 200 cb 200 cb 125 cb 1018,0 hPa 0,0 l/m² 2,1 km/h (1 Bft) W-NW 302 ° 60 min 0,356 mm 1,3 UV-I 223 W/m² 14,0 °C 27,4 °C 8,0 km/h (2 Bft) 96,58 %
03.09.2026 15:05 25,1 °C 28,2 °C 27,8 °C 27,7 °C 28,2 °C 22,2 °C 22,2 °C 20,6 °C 20,0 °C 20,0 °C 43 % 44 % 0 lf 200 cb 200 cb 200 cb 125 cb 1018,3 hPa 0,0 l/m² 3,6 km/h (1 Bft) S 188 ° 60 min 0,482 mm 3,3 UV-I 568 W/m² 14,8 °C 28,2 °C 12,9 km/h (3 Bft) 96,64 %
03.09.2026 14:05 24,8 °C 27,4 °C 26,7 °C 27,4 °C 27,7 °C 22,2 °C 22,2 °C 20,0 °C 20,0 °C 20,6 °C 43 % 44 % 0 lf 200 cb 200 cb 200 cb 126 cb 1018,3 hPa 0,0 l/m² 5,0 km/h (1 Bft) W-NW 287 ° 60 min 0,356 mm 4,3 UV-I 712 W/m² 14,0 °C 27,4 °C 11,3 km/h (2 Bft) 97,46 %
03.09.2026 13:05 24,6 °C 25,7 °C 24,4 °C 25,7 °C 25,9 °C 21,7 °C 21,7 °C 20,0 °C 20,0 °C 20,6 °C 44 % 47 % 0 lf 200 cb 200 cb 200 cb 126 cb 1018,6 hPa 0,0 l/m² 6,3 km/h (2 Bft) O-SO 123 ° 60 min 0,381 mm 2,3 UV-I 309 W/m² 13,5 °C 25,7 °C 12,9 km/h (3 Bft) 93,33 %
03.09.2026 12:05 24,3 °C 25,4 °C 23,9 °C 25,4 °C 25,9 °C 21,1 °C 21,1 °C 19,4 °C 20,0 °C 20,6 °C 43 % 47 % 0 lf 200 cb 200 cb 200 cb 126 cb 1019,4 hPa 0,0 l/m² 5,6 km/h (1 Bft) NW 318 ° 60 min 0,381 mm 2,6 UV-I 339 W/m² 13,3 °C 25,4 °C 16,1 km/h (3 Bft) 99,12 %
03.09.2026 11:05 24,2 °C 24,6 °C 23,3 °C 24,4 °C 24,7 °C 19,4 °C 19,4 °C 19,4 °C 20,0 °C 20,6 °C 45 % 50 % 0 lf 200 cb 200 cb 200 cb 126 cb 1019,6 hPa 0,0 l/m² 5,0 km/h (1 Bft) W-NW 292 ° 60 min 0,305 mm 2,8 UV-I 582 W/m² 13,5 °C 24,6 °C 11,3 km/h (2 Bft) 95,76 %
03.09.2026 10:05 24,1 °C 22,3 °C 20,6 °C 22,1 °C 22,3 °C 18,3 °C 18,3 °C 19,4 °C 20,0 °C 20,6 °C 47 % 61 % 0 lf 200 cb 200 cb 200 cb 126 cb 1019,3 hPa 0,0 l/m² 0,7 km/h (0 Bft) SO 141 ° 60 min 0,203 mm 1,5 UV-I 290 W/m² 14,4 °C 22,3 °C 3,2 km/h (1 Bft) 94,21 %
03.09.2026 09:05 24,2 °C 19,1 °C 18,3 °C 18,8 °C 19,1 °C 17,8 °C 17,8 °C 19,4 °C 20,0 °C 20,6 °C 46 % 68 % 0 lf 200 cb 200 cb 200 cb 125 cb 1019,7 hPa 0,0 l/m² 1,2 km/h (1 Bft) S-SO 150 ° 35 min 0,076 mm 0,8 UV-I 264 W/m² 13,1 °C 19,1 °C 4,8 km/h (1 Bft) 98,33 %
03.09.2026 08:05 24,6 °C 16,0 °C 15,0 °C 15,8 °C 16,0 °C 17,8 °C 17,8 °C 20,0 °C 20,0 °C 20,6 °C 46 % 78 % 0 lf 200 cb 200 cb 200 cb 125 cb 1019,5 hPa 0,0 l/m² 1,1 km/h (1 Bft) O-NO 60 ° 0 min 0,026 mm 0,0 UV-I 26 W/m² 12,2 °C 16,0 °C 3,2 km/h (1 Bft) 97,56 %
03.09.2026 07:05 24,8 °C 15,2 °C 13,9 °C 15,2 °C 15,2 °C 18,3 °C 18,3 °C 20,0 °C 20,0 °C 20,6 °C 47 % 80 % 0 lf 200 cb 200 cb 200 cb 125 cb 1019,6 hPa 0,0 l/m² 0,2 km/h (0 Bft) O 85 ° 0 min 0,025 mm 0,0 UV-I 9 W/m² 11,8 °C 15,2 °C 1,6 km/h (1 Bft) 91,87 %
03.09.2026 06:05 24,8 °C 16,0 °C 14,4 °C 15,9 °C 16,0 °C 18,3 °C 18,3 °C 20,0 °C 20,6 °C 20,6 °C 48 % 78 % 0 lf 200 cb 200 cb 200 cb 125 cb 1018,9 hPa 0,0 l/m² 0,8 km/h (0 Bft) SW 226 ° 0 min 0,025 mm 0,0 UV-I 0 W/m² 12,2 °C 16,0 °C 4,8 km/h (1 Bft) 96,75 %
03.09.2026 05:05 24,8 °C 15,6 °C 13,9 °C 15,6 °C 15,6 °C 18,3 °C 18,3 °C 20,0 °C 20,6 °C 20,6 °C 48 % 81 % 0 lf 200 cb 200 cb 200 cb 124 cb 1019,4 hPa 0,0 l/m² 0,2 km/h (0 Bft) O-NO 76 ° 0 min 0,025 mm 0,0 UV-I 0 W/m² 12,3 °C 15,6 °C 1,6 km/h (1 Bft) 93,39 %
03.09.2026 04:05 24,9 °C 15,8 °C 14,4 °C 15,8 °C 15,8 °C 18,9 °C 18,9 °C 20,6 °C 20,6 °C 20,6 °C 48 % 80 % 0 lf 200 cb 200 cb 200 cb 124 cb 1019,4 hPa 0,0 l/m² 1,4 km/h (1 Bft) O 81 ° 0 min 0,026 mm 0,0 UV-I 0 W/m² 12,4 °C 15,8 °C 4,8 km/h (1 Bft) 96,97 %
03.09.2026 04:00 24,8 °C 15,8 °C 14,4 °C 15,8 °C 16,0 °C 18,9 °C 18,9 °C 20,6 °C 20,6 °C 20,6 °C 48 % 80 % 0 lf 200 cb 200 cb 200 cb 124 cb 1019,4 hPa 0,0 l/m² 1,3 km/h (1 Bft) O-SO 111 ° 0 min 0,026 mm 0,0 UV-I 0 W/m² 12,4 °C 15,8 °C 3,2 km/h (1 Bft) 98,31 %
_ Min-Zeit 09:55 07:15 05:05 07:15 07:05 07:45 07:45 08:30 06:15 14:50 11:40 15:15 04:00 04:00 04:00 04:00 04:00 18:00 - 04:20 - - - - - - 07:30 07:00 19:10 07:00
Minimum _ 24,1 °C 15,1 °C 13,9 °C 15,1 °C 15,2 °C 17,8 °C 17,8 °C 19,4 °C 20,0 °C 20,0 °C 43 % 42 % 0 lf 200 cb 200 cb 200 cb 124 cb 1017,0 hPa - 0,0 km/h (0 Bft) - - - - - - 11,7 °C 15,2 °C 0,0 km/h (0 Bft) 88,89 %
_ Max-Zeit 17:30 14:40 15:30 14:40 14:40 13:10 13:10 18:35 01:45 04:00 22:20 04:50 04:00 04:00 04:00 04:00 02:20 09:15 04:00 14:25 - - 08:35 15:00 14:20 14:35 21:05 14:35 12:50 02:40
Maximum _ 25,4 °C 28,6 °C 28,9 °C 28,4 °C 28,6 °C 22,2 °C 22,2 °C 21,7 °C 21,1 °C 20,6 °C 49 % 81 % 0 lf 200 cb 200 cb 200 cb 129 cb 1019,9 hPa 0,0 l/m² 8,6 km/h
S-SW (2 Bft)
- - 5 min 0,482 mm 4,4 UV-I 779 W/m² 16,8 °C 28,4 °C 22,5 km/h
S (4 Bft)
100,00 %
Durchschnitt _ 25,0 °C 22,2 °C 20,7 °C 22,1 °C 22,3 °C 20,5 °C 20,5 °C 20,7 °C 20,3 °C 20,4 °C 46 % 63 % 0 lf 200 cb 200 cb 200 cb 126 cb 1018,6 hPa #0,0 l/m² 1,9 km/h (1 Bft) S - #0 min. #0,076 mm 0,0 UV-I 0 W/m² 14,3 °C 22,2 °C 5,8 km/h (2 Bft) 95,76 %
copy; 2009 Dieter Kraft